sensor_id;sensor_type;location;lat;lon;timestamp;P1;durP1;ratioP1;P2;durP2;ratioP2
61104;SDS011;46987;32.638;-115.438;2023-02-28T00:00:48;6.78;;;2.03;;
61104;SDS011;46987;32.638;-115.438;2023-02-28T00:03:14;15.23;;;2.70;;
61104;SDS011;46987;32.638;-115.438;2023-02-28T00:05:41;20.05;;;3.50;;
61104;SDS011;46987;32.638;-115.438;2023-02-28T00:08:09;5.25;;;2.25;;
61104;SDS011;46987;32.638;-115.438;2023-02-28T00:10:36;6.03;;;1.90;;
61104;SDS011;46987;32.638;-115.438;2023-02-28T00:13:03;20.05;;;4.57;;
61104;SDS011;46987;32.638;-115.438;2023-02-28T00:15:30;6.25;;;2.13;;
61104;SDS011;46987;32.638;-115.438;2023-02-28T00:17:57;6.18;;;1.70;;
61104;SDS011;46987;32.638;-115.438;2023-02-28T00:20:24;12.32;;;1.60;;
61104;SDS011;46987;32.638;-115.438;2023-02-28T00:22:51;7.35;;;1.90;;
61104;SDS011;46987;32.638;-115.438;2023-02-28T00:25:21;10.15;;;1.80;;
61104;SDS011;46987;32.638;-115.438;2023-02-28T00:27:47;10.27;;;2.10;;
61104;SDS011;46987;32.638;-115.438;2023-02-28T00:30:15;6.40;;;1.90;;
61104;SDS011;46987;32.638;-115.438;2023-02-28T00:32:42;5.15;;;1.20;;
61104;SDS011;46987;32.638;-115.438;2023-02-28T00:35:09;3.65;;;0.90;;
61104;SDS011;46987;32.638;-115.438;2023-02-28T00:37:36;3.63;;;0.70;;
61104;SDS011;46987;32.638;-115.438;2023-02-28T00:40:05;3.15;;;0.60;;
61104;SDS011;46987;32.638;-115.438;2023-02-28T00:42:34;4.13;;;1.00;;
61104;SDS011;46987;32.638;-115.438;2023-02-28T00:45:03;2.88;;;0.77;;
61104;SDS011;46987;32.638;-115.438;2023-02-28T00:47:30;6.22;;;0.90;;
61104;SDS011;46987;32.638;-115.438;2023-02-28T00:49:57;5.32;;;1.23;;
61104;SDS011;46987;32.638;-115.438;2023-02-28T00:52:23;3.63;;;1.08;;
61104;SDS011;46987;32.638;-115.438;2023-02-28T00:54:50;6.80;;;1.10;;
61104;SDS011;46987;32.638;-115.438;2023-02-28T00:57:17;1.50;;;0.60;;
61104;SDS011;46987;32.638;-115.438;2023-02-28T00:59:45;5.95;;;1.38;;
61104;SDS011;46987;32.638;-115.438;2023-02-28T01:02:12;5.55;;;0.77;;
61104;SDS011;46987;32.638;-115.438;2023-02-28T01:04:39;3.22;;;0.82;;
61104;SDS011;46987;32.638;-115.438;2023-02-28T01:07:05;4.55;;;1.20;;
61104;SDS011;46987;32.638;-115.438;2023-02-28T01:09:32;3.03;;;0.98;;
61104;SDS011;46987;32.638;-115.438;2023-02-28T01:11:58;3.90;;;0.93;;
61104;SDS011;46987;32.638;-115.438;2023-02-28T01:14:25;6.10;;;0.90;;
61104;SDS011;46987;32.638;-115.438;2023-02-28T01:16:53;6.78;;;1.50;;
61104;SDS011;46987;32.638;-115.438;2023-02-28T01:19:20;4.03;;;1.23;;
61104;SDS011;46987;32.638;-115.438;2023-02-28T01:21:46;4.80;;;1.00;;
61104;SDS011;46987;32.638;-115.438;2023-02-28T01:24:13;9.55;;;1.92;;
61104;SDS011;46987;32.638;-115.438;2023-02-28T01:26:40;4.38;;;1.38;;
61104;SDS011;46987;32.638;-115.438;2023-02-28T01:29:07;2.30;;;0.85;;
61104;SDS011;46987;32.638;-115.438;2023-02-28T01:31:34;3.30;;;0.60;;
61104;SDS011;46987;32.638;-115.438;2023-02-28T01:34:02;3.45;;;0.70;;
61104;SDS011;46987;32.638;-115.438;2023-02-28T01:36:29;5.03;;;1.00;;
61104;SDS011;46987;32.638;-115.438;2023-02-28T01:38:56;4.13;;;1.40;;
61104;SDS011;46987;32.638;-115.438;2023-02-28T01:41:22;4.55;;;1.17;;
61104;SDS011;46987;32.638;-115.438;2023-02-28T01:43:54;7.32;;;1.92;;
61104;SDS011;46987;32.638;-115.438;2023-02-28T01:46:21;8.00;;;1.80;;
61104;SDS011;46987;32.638;-115.438;2023-02-28T01:48:48;7.47;;;1.63;;
61104;SDS011;46987;32.638;-115.438;2023-02-28T01:51:17;3.78;;;1.17;;
61104;SDS011;46987;32.638;-115.438;2023-02-28T01:53:47;4.68;;;1.27;;
61104;SDS011;46987;32.638;-115.438;2023-02-28T01:56:15;4.00;;;0.95;;
61104;SDS011;46987;32.638;-115.438;2023-02-28T01:58:48;3.88;;;0.82;;
61104;SDS011;46987;32.638;-115.438;2023-02-28T02:01:15;5.82;;;1.27;;
61104;SDS011;46987;32.638;-115.438;2023-02-28T02:03:47;5.35;;;1.30;;
61104;SDS011;46987;32.638;-115.438;2023-02-28T02:06:14;5.50;;;1.30;;
61104;SDS011;46987;32.638;-115.438;2023-02-28T02:08:43;8.82;;;1.77;;
61104;SDS011;46987;32.638;-115.438;2023-02-28T02:11:09;7.53;;;1.80;;
61104;SDS011;46987;32.638;-115.438;2023-02-28T02:13:58;5.90;;;1.23;;
61104;SDS011;46987;32.638;-115.438;2023-02-28T02:16:31;6.63;;;2.05;;
61104;SDS011;46987;32.638;-115.438;2023-02-28T02:19:04;5.72;;;1.42;;
61104;SDS011;46987;32.638;-115.438;2023-02-28T02:21:45;3.70;;;1.20;;
61104;SDS011;46987;32.638;-115.438;2023-02-28T02:24:24;5.07;;;1.20;;
61104;SDS011;46987;32.638;-115.438;2023-02-28T02:26:58;5.47;;;1.08;;
61104;SDS011;46987;32.638;-115.438;2023-02-28T02:32:20;4.28;;;0.93;;
61104;SDS011;46987;32.638;-115.438;2023-02-28T02:34:58;4.97;;;1.15;;
61104;SDS011;46987;32.638;-115.438;2023-02-28T02:37:27;9.38;;;1.20;;
61104;SDS011;46987;32.638;-115.438;2023-02-28T02:40:00;3.92;;;1.25;;
61104;SDS011;46987;32.638;-115.438;2023-02-28T02:42:34;4.03;;;1.23;;
61104;SDS011;46987;32.638;-115.438;2023-02-28T02:45:04;5.47;;;1.40;;
61104;SDS011;46987;32.638;-115.438;2023-02-28T02:47:33;6.18;;;1.48;;
61104;SDS011;46987;32.638;-115.438;2023-02-28T02:50:04;3.05;;;1.27;;
61104;SDS011;46987;32.638;-115.438;2023-02-28T02:52:34;6.05;;;1.20;;
61104;SDS011;46987;32.638;-115.438;2023-02-28T02:55:05;5.95;;;1.38;;
61104;SDS011;46987;32.638;-115.438;2023-02-28T02:57:33;8.55;;;1.98;;
61104;SDS011;46987;32.638;-115.438;2023-02-28T03:00:02;5.00;;;1.27;;
61104;SDS011;46987;32.638;-115.438;2023-02-28T03:02:30;7.72;;;1.30;;
61104;SDS011;46987;32.638;-115.438;2023-02-28T03:05:00;7.45;;;1.88;;
61104;SDS011;46987;32.638;-115.438;2023-02-28T03:07:29;2.67;;;1.00;;
61104;SDS011;46987;32.638;-115.438;2023-02-28T03:09:56;8.85;;;2.05;;
61104;SDS011;46987;32.638;-115.438;2023-02-28T03:12:23;4.40;;;1.23;;
61104;SDS011;46987;32.638;-115.438;2023-02-28T03:14:55;3.38;;;1.08;;
61104;SDS011;46987;32.638;-115.438;2023-02-28T03:20:12;5.18;;;1.30;;
61104;SDS011;46987;32.638;-115.438;2023-02-28T03:22:54;8.77;;;1.27;;
61104;SDS011;46987;32.638;-115.438;2023-02-28T03:25:29;5.53;;;1.30;;
61104;SDS011;46987;32.638;-115.438;2023-02-28T03:28:02;4.93;;;1.48;;
61104;SDS011;46987;32.638;-115.438;2023-02-28T03:30:33;7.82;;;1.50;;
61104;SDS011;46987;32.638;-115.438;2023-02-28T03:33:02;3.50;;;1.20;;
61104;SDS011;46987;32.638;-115.438;2023-02-28T03:35:31;6.05;;;1.13;;
61104;SDS011;46987;32.638;-115.438;2023-02-28T03:38:02;7.75;;;1.38;;
61104;SDS011;46987;32.638;-115.438;2023-02-28T03:40:30;4.78;;;1.23;;
61104;SDS011;46987;32.638;-115.438;2023-02-28T03:42:59;5.13;;;1.10;;
61104;SDS011;46987;32.638;-115.438;2023-02-28T03:45:27;3.33;;;1.15;;
61104;SDS011;46987;32.638;-115.438;2023-02-28T03:47:55;4.18;;;1.45;;
61104;SDS011;46987;32.638;-115.438;2023-02-28T03:50:25;3.67;;;1.20;;
61104;SDS011;46987;32.638;-115.438;2023-02-28T03:52:54;9.18;;;3.60;;
61104;SDS011;46987;32.638;-115.438;2023-02-28T03:55:29;6.25;;;3.17;;
61104;SDS011;46987;32.638;-115.438;2023-02-28T03:57:59;11.20;;;4.88;;
61104;SDS011;46987;32.638;-115.438;2023-02-28T04:00:29;8.63;;;2.35;;
61104;SDS011;46987;32.638;-115.438;2023-02-28T04:02:58;7.22;;;2.17;;
61104;SDS011;46987;32.638;-115.438;2023-02-28T04:05:25;9.45;;;2.90;;
61104;SDS011;46987;32.638;-115.438;2023-02-28T04:07:52;10.90;;;2.83;;
61104;SDS011;46987;32.638;-115.438;2023-02-28T04:10:18;7.63;;;2.47;;
61104;SDS011;46987;32.638;-115.438;2023-02-28T04:12:47;7.13;;;2.28;;
61104;SDS011;46987;32.638;-115.438;2023-02-28T04:15:13;6.22;;;1.80;;
61104;SDS011;46987;32.638;-115.438;2023-02-28T04:17:40;9.65;;;2.95;;
61104;SDS011;46987;32.638;-115.438;2023-02-28T04:20:07;6.57;;;2.47;;
61104;SDS011;46987;32.638;-115.438;2023-02-28T04:22:35;9.52;;;2.03;;
61104;SDS011;46987;32.638;-115.438;2023-02-28T04:25:02;11.85;;;2.20;;
61104;SDS011;46987;32.638;-115.438;2023-02-28T04:27:29;7.97;;;1.90;;
61104;SDS011;46987;32.638;-115.438;2023-02-28T04:29:57;6.90;;;2.15;;
61104;SDS011;46987;32.638;-115.438;2023-02-28T04:32:24;5.20;;;1.73;;
61104;SDS011;46987;32.638;-115.438;2023-02-28T04:34:51;7.47;;;2.72;;
61104;SDS011;46987;32.638;-115.438;2023-02-28T04:37:17;6.90;;;2.30;;
61104;SDS011;46987;32.638;-115.438;2023-02-28T04:39:44;5.93;;;1.52;;
61104;SDS011;46987;32.638;-115.438;2023-02-28T04:42:11;4.72;;;1.35;;
61104;SDS011;46987;32.638;-115.438;2023-02-28T04:44:37;3.30;;;1.00;;
61104;SDS011;46987;32.638;-115.438;2023-02-28T04:47:06;4.05;;;1.20;;
61104;SDS011;46987;32.638;-115.438;2023-02-28T04:49:32;6.50;;;0.95;;
61104;SDS011;46987;32.638;-115.438;2023-02-28T04:51:59;5.28;;;0.80;;
61104;SDS011;46987;32.638;-115.438;2023-02-28T04:54:25;4.80;;;0.90;;
61104;SDS011;46987;32.638;-115.438;2023-02-28T04:56:52;6.38;;;1.02;;
61104;SDS011;46987;32.638;-115.438;2023-02-28T04:59:19;10.10;;;1.35;;
61104;SDS011;46987;32.638;-115.438;2023-02-28T05:01:46;7.60;;;1.08;;
61104;SDS011;46987;32.638;-115.438;2023-02-28T05:04:15;7.35;;;2.20;;
61104;SDS011;46987;32.638;-115.438;2023-02-28T05:06:42;10.80;;;3.58;;
61104;SDS011;46987;32.638;-115.438;2023-02-28T05:09:08;7.63;;;3.17;;
61104;SDS011;46987;32.638;-115.438;2023-02-28T05:11:37;7.03;;;1.75;;
61104;SDS011;46987;32.638;-115.438;2023-02-28T05:14:06;4.40;;;1.23;;
61104;SDS011;46987;32.638;-115.438;2023-02-28T05:16:33;2.20;;;1.02;;
61104;SDS011;46987;32.638;-115.438;2023-02-28T05:18:59;2.70;;;1.02;;
61104;SDS011;46987;32.638;-115.438;2023-02-28T05:21:29;4.57;;;1.05;;
61104;SDS011;46987;32.638;-115.438;2023-02-28T05:23:56;3.47;;;0.70;;
61104;SDS011;46987;32.638;-115.438;2023-02-28T05:26:23;1.08;;;0.40;;
61104;SDS011;46987;32.638;-115.438;2023-02-28T05:28:50;4.28;;;0.77;;
61104;SDS011;46987;32.638;-115.438;2023-02-28T05:31:16;2.05;;;0.70;;
61104;SDS011;46987;32.638;-115.438;2023-02-28T05:33:43;3.15;;;0.63;;
61104;SDS011;46987;32.638;-115.438;2023-02-28T05:36:10;2.67;;;0.70;;
61104;SDS011;46987;32.638;-115.438;2023-02-28T05:38:38;3.50;;;0.70;;
61104;SDS011;46987;32.638;-115.438;2023-02-28T05:41:05;4.40;;;0.77;;
61104;SDS011;46987;32.638;-115.438;2023-02-28T05:43:32;2.42;;;0.88;;
61104;SDS011;46987;32.638;-115.438;2023-02-28T05:45:58;2.85;;;0.70;;
61104;SDS011;46987;32.638;-115.438;2023-02-28T05:48:25;4.68;;;0.57;;
61104;SDS011;46987;32.638;-115.438;2023-02-28T05:50:52;1.30;;;0.43;;
61104;SDS011;46987;32.638;-115.438;2023-02-28T05:53:18;2.78;;;0.60;;
61104;SDS011;46987;32.638;-115.438;2023-02-28T05:55:46;1.85;;;0.65;;
61104;SDS011;46987;32.638;-115.438;2023-02-28T05:58:13;5.60;;;0.80;;
61104;SDS011;46987;32.638;-115.438;2023-02-28T06:00:39;2.47;;;0.65;;
61104;SDS011;46987;32.638;-115.438;2023-02-28T06:03:06;6.05;;;0.77;;
61104;SDS011;46987;32.638;-115.438;2023-02-28T06:05:33;8.38;;;0.75;;
61104;SDS011;46987;32.638;-115.438;2023-02-28T06:07:59;4.03;;;0.70;;
61104;SDS011;46987;32.638;-115.438;2023-02-28T06:10:29;6.93;;;0.80;;
61104;SDS011;46987;32.638;-115.438;2023-02-28T06:13:01;1.60;;;0.60;;
61104;SDS011;46987;32.638;-115.438;2023-02-28T06:15:31;2.13;;;0.50;;
61104;SDS011;46987;32.638;-115.438;2023-02-28T06:17:58;3.05;;;0.70;;
61104;SDS011;46987;32.638;-115.438;2023-02-28T06:20:24;4.80;;;0.95;;
61104;SDS011;46987;32.638;-115.438;2023-02-28T06:22:52;2.65;;;0.55;;
61104;SDS011;46987;32.638;-115.438;2023-02-28T06:25:20;3.40;;;0.60;;
61104;SDS011;46987;32.638;-115.438;2023-02-28T06:27:46;1.33;;;0.60;;
61104;SDS011;46987;32.638;-115.438;2023-02-28T06:30:16;1.42;;;0.43;;
61104;SDS011;46987;32.638;-115.438;2023-02-28T06:32:42;1.00;;;0.50;;
61104;SDS011;46987;32.638;-115.438;2023-02-28T06:35:09;2.25;;;0.50;;
61104;SDS011;46987;32.638;-115.438;2023-02-28T06:37:36;1.42;;;0.60;;
61104;SDS011;46987;32.638;-115.438;2023-02-28T06:40:03;4.20;;;0.65;;
61104;SDS011;46987;32.638;-115.438;2023-02-28T06:42:32;2.13;;;0.60;;
61104;SDS011;46987;32.638;-115.438;2023-02-28T06:44:59;0.68;;;0.50;;
61104;SDS011;46987;32.638;-115.438;2023-02-28T06:47:28;1.75;;;0.40;;
61104;SDS011;46987;32.638;-115.438;2023-02-28T06:49:54;1.85;;;0.40;;
61104;SDS011;46987;32.638;-115.438;2023-02-28T06:52:21;1.27;;;0.43;;
61104;SDS011;46987;32.638;-115.438;2023-02-28T06:54:48;1.92;;;0.40;;
61104;SDS011;46987;32.638;-115.438;2023-02-28T06:57:25;2.13;;;0.50;;
61104;SDS011;46987;32.638;-115.438;2023-02-28T06:59:53;2.80;;;0.40;;
61104;SDS011;46987;32.638;-115.438;2023-02-28T07:02:19;1.85;;;0.40;;
61104;SDS011;46987;32.638;-115.438;2023-02-28T07:04:48;3.22;;;0.52;;
61104;SDS011;46987;32.638;-115.438;2023-02-28T07:07:14;1.02;;;0.60;;
61104;SDS011;46987;32.638;-115.438;2023-02-28T07:09:41;4.20;;;0.52;;
61104;SDS011;46987;32.638;-115.438;2023-02-28T07:12:07;2.17;;;0.68;;
61104;SDS011;46987;32.638;-115.438;2023-02-28T07:14:35;1.00;;;0.40;;
61104;SDS011;46987;32.638;-115.438;2023-02-28T07:17:02;1.25;;;0.50;;
61104;SDS011;46987;32.638;-115.438;2023-02-28T07:19:29;2.05;;;0.85;;
61104;SDS011;46987;32.638;-115.438;2023-02-28T07:21:57;4.43;;;0.60;;
61104;SDS011;46987;32.638;-115.438;2023-02-28T07:24:24;2.05;;;0.60;;
61104;SDS011;46987;32.638;-115.438;2023-02-28T07:26:54;1.38;;;0.60;;
61104;SDS011;46987;32.638;-115.438;2023-02-28T07:29:20;1.95;;;0.75;;
61104;SDS011;46987;32.638;-115.438;2023-02-28T07:31:47;0.88;;;0.40;;
61104;SDS011;46987;32.638;-115.438;2023-02-28T07:34:14;3.92;;;0.82;;
61104;SDS011;46987;32.638;-115.438;2023-02-28T07:36:40;3.25;;;0.60;;
61104;SDS011;46987;32.638;-115.438;2023-02-28T07:39:08;3.08;;;0.77;;
61104;SDS011;46987;32.638;-115.438;2023-02-28T07:41:36;1.55;;;0.82;;
61104;SDS011;46987;32.638;-115.438;2023-02-28T07:44:09;1.45;;;0.82;;
61104;SDS011;46987;32.638;-115.438;2023-02-28T07:46:36;3.13;;;0.90;;
61104;SDS011;46987;32.638;-115.438;2023-02-28T07:49:02;4.07;;;0.85;;
61104;SDS011;46987;32.638;-115.438;2023-02-28T07:51:29;3.08;;;0.88;;
61104;SDS011;46987;32.638;-115.438;2023-02-28T07:53:56;4.05;;;0.77;;
61104;SDS011;46987;32.638;-115.438;2023-02-28T07:56:24;4.30;;;1.08;;
61104;SDS011;46987;32.638;-115.438;2023-02-28T07:58:50;3.13;;;1.38;;
61104;SDS011;46987;32.638;-115.438;2023-02-28T08:01:17;3.58;;;1.20;;
61104;SDS011;46987;32.638;-115.438;2023-02-28T08:03:45;4.03;;;1.00;;
61104;SDS011;46987;32.638;-115.438;2023-02-28T08:06:15;2.92;;;0.60;;
61104;SDS011;46987;32.638;-115.438;2023-02-28T08:08:42;2.65;;;0.57;;
61104;SDS011;46987;32.638;-115.438;2023-02-28T08:11:10;1.67;;;0.65;;
61104;SDS011;46987;32.638;-115.438;2023-02-28T08:13:39;2.88;;;0.47;;
61104;SDS011;46987;32.638;-115.438;2023-02-28T08:16:05;2.90;;;0.75;;
61104;SDS011;46987;32.638;-115.438;2023-02-28T08:18:32;1.15;;;0.30;;
61104;SDS011;46987;32.638;-115.438;2023-02-28T08:20:59;1.15;;;0.50;;
61104;SDS011;46987;32.638;-115.438;2023-02-28T08:23:26;0.75;;;0.28;;
61104;SDS011;46987;32.638;-115.438;2023-02-28T08:25:55;0.35;;;0.20;;
61104;SDS011;46987;32.638;-115.438;2023-02-28T08:28:22;0.40;;;0.30;;
61104;SDS011;46987;32.638;-115.438;2023-02-28T08:30:50;1.48;;;0.50;;
61104;SDS011;46987;32.638;-115.438;2023-02-28T08:33:17;2.15;;;0.40;;
61104;SDS011;46987;32.638;-115.438;2023-02-28T08:35:44;3.15;;;0.50;;
61104;SDS011;46987;32.638;-115.438;2023-02-28T08:38:10;1.15;;;0.52;;
61104;SDS011;46987;32.638;-115.438;2023-02-28T08:40:37;2.33;;;0.70;;
61104;SDS011;46987;32.638;-115.438;2023-02-28T08:43:04;1.10;;;0.40;;
61104;SDS011;46987;32.638;-115.438;2023-02-28T08:45:30;0.80;;;0.40;;
61104;SDS011;46987;32.638;-115.438;2023-02-28T08:47:59;3.03;;;0.63;;
61104;SDS011;46987;32.638;-115.438;2023-02-28T08:50:25;2.58;;;0.60;;
61104;SDS011;46987;32.638;-115.438;2023-02-28T08:52:52;0.95;;;0.50;;
61104;SDS011;46987;32.638;-115.438;2023-02-28T08:55:19;2.13;;;0.65;;
61104;SDS011;46987;32.638;-115.438;2023-02-28T08:57:45;1.45;;;0.60;;
61104;SDS011;46987;32.638;-115.438;2023-02-28T09:00:12;1.67;;;0.80;;
61104;SDS011;46987;32.638;-115.438;2023-02-28T09:02:39;2.10;;;0.90;;
61104;SDS011;46987;32.638;-115.438;2023-02-28T09:05:09;2.22;;;0.77;;
61104;SDS011;46987;32.638;-115.438;2023-02-28T09:07:36;2.40;;;0.60;;
61104;SDS011;46987;32.638;-115.438;2023-02-28T09:10:02;2.72;;;0.88;;
61104;SDS011;46987;32.638;-115.438;2023-02-28T09:12:31;2.35;;;1.02;;
61104;SDS011;46987;32.638;-115.438;2023-02-28T09:14:58;2.70;;;0.80;;
61104;SDS011;46987;32.638;-115.438;2023-02-28T09:17:25;2.53;;;0.90;;
61104;SDS011;46987;32.638;-115.438;2023-02-28T09:19:51;3.25;;;0.80;;
61104;SDS011;46987;32.638;-115.438;2023-02-28T09:22:19;4.32;;;0.70;;
61104;SDS011;46987;32.638;-115.438;2023-02-28T09:24:46;3.28;;;0.90;;
61104;SDS011;46987;32.638;-115.438;2023-02-28T09:27:12;2.05;;;0.60;;
61104;SDS011;46987;32.638;-115.438;2023-02-28T09:29:39;4.78;;;0.88;;
61104;SDS011;46987;32.638;-115.438;2023-02-28T09:32:06;2.63;;;0.90;;
61104;SDS011;46987;32.638;-115.438;2023-02-28T09:34:32;7.40;;;0.93;;
61104;SDS011;46987;32.638;-115.438;2023-02-28T09:36:59;2.03;;;0.80;;
61104;SDS011;46987;32.638;-115.438;2023-02-28T09:39:27;2.55;;;0.80;;
61104;SDS011;46987;32.638;-115.438;2023-02-28T09:41:56;2.63;;;0.60;;
61104;SDS011;46987;32.638;-115.438;2023-02-28T09:44:26;2.67;;;0.85;;
61104;SDS011;46987;32.638;-115.438;2023-02-28T09:46:55;1.73;;;0.70;;
61104;SDS011;46987;32.638;-115.438;2023-02-28T09:49:23;2.95;;;0.65;;
61104;SDS011;46987;32.638;-115.438;2023-02-28T09:51:53;1.50;;;0.80;;
61104;SDS011;46987;32.638;-115.438;2023-02-28T09:54:22;3.17;;;0.70;;
61104;SDS011;46987;32.638;-115.438;2023-02-28T09:56:52;2.13;;;0.70;;
61104;SDS011;46987;32.638;-115.438;2023-02-28T09:59:24;1.63;;;0.50;;
61104;SDS011;46987;32.638;-115.438;2023-02-28T10:01:54;2.08;;;0.90;;
61104;SDS011;46987;32.638;-115.438;2023-02-28T10:04:28;2.85;;;0.75;;
61104;SDS011;46987;32.638;-115.438;2023-02-28T10:06:59;4.03;;;0.82;;
61104;SDS011;46987;32.638;-115.438;2023-02-28T10:09:29;2.97;;;0.70;;
61104;SDS011;46987;32.638;-115.438;2023-02-28T10:11:59;3.00;;;0.60;;
61104;SDS011;46987;32.638;-115.438;2023-02-28T10:14:31;2.97;;;0.70;;
61104;SDS011;46987;32.638;-115.438;2023-02-28T10:17:00;1.60;;;0.60;;
61104;SDS011;46987;32.638;-115.438;2023-02-28T10:19:30;2.05;;;0.50;;
61104;SDS011;46987;32.638;-115.438;2023-02-28T10:21:58;0.90;;;0.45;;
61104;SDS011;46987;32.638;-115.438;2023-02-28T10:24:27;0.93;;;0.50;;
61104;SDS011;46987;32.638;-115.438;2023-02-28T10:26:56;3.90;;;0.65;;
61104;SDS011;46987;32.638;-115.438;2023-02-28T10:29:28;1.42;;;0.50;;
61104;SDS011;46987;32.638;-115.438;2023-02-28T10:31:58;0.90;;;0.47;;
61104;SDS011;46987;32.638;-115.438;2023-02-28T10:34:27;1.58;;;0.50;;
61104;SDS011;46987;32.638;-115.438;2023-02-28T10:36:53;1.05;;;0.50;;
61104;SDS011;46987;32.638;-115.438;2023-02-28T10:39:37;0.55;;;0.30;;
61104;SDS011;46987;32.638;-115.438;2023-02-28T10:42:05;1.40;;;0.45;;
61104;SDS011;46987;32.638;-115.438;2023-02-28T10:44:34;0.43;;;0.38;;
61104;SDS011;46987;32.638;-115.438;2023-02-28T10:47:01;0.85;;;0.40;;
61104;SDS011;46987;32.638;-115.438;2023-02-28T10:49:28;1.85;;;0.30;;
61104;SDS011;46987;32.638;-115.438;2023-02-28T10:51:56;1.10;;;0.38;;
61104;SDS011;46987;32.638;-115.438;2023-02-28T10:54:24;1.00;;;0.50;;
61104;SDS011;46987;32.638;-115.438;2023-02-28T10:59:36;0.68;;;0.40;;
61104;SDS011;46987;32.638;-115.438;2023-02-28T11:02:08;1.33;;;0.47;;
61104;SDS011;46987;32.638;-115.438;2023-02-28T11:04:55;2.80;;;0.52;;
61104;SDS011;46987;32.638;-115.438;2023-02-28T11:07:22;0.80;;;0.50;;
61104;SDS011;46987;32.638;-115.438;2023-02-28T11:09:49;1.80;;;0.45;;
61104;SDS011;46987;32.638;-115.438;2023-02-28T11:12:20;2.33;;;0.65;;
61104;SDS011;46987;32.638;-115.438;2023-02-28T11:14:49;2.00;;;0.60;;
61104;SDS011;46987;32.638;-115.438;2023-02-28T11:17:19;1.73;;;0.68;;
61104;SDS011;46987;32.638;-115.438;2023-02-28T11:19:48;3.25;;;0.80;;
61104;SDS011;46987;32.638;-115.438;2023-02-28T11:22:17;2.97;;;0.90;;
61104;SDS011;46987;32.638;-115.438;2023-02-28T11:24:45;1.27;;;0.60;;
61104;SDS011;46987;32.638;-115.438;2023-02-28T11:27:24;1.77;;;0.73;;
61104;SDS011;46987;32.638;-115.438;2023-02-28T11:29:53;1.42;;;0.70;;
61104;SDS011;46987;32.638;-115.438;2023-02-28T11:32:20;2.53;;;0.57;;
61104;SDS011;46987;32.638;-115.438;2023-02-28T11:34:47;1.98;;;0.60;;
61104;SDS011;46987;32.638;-115.438;2023-02-28T11:37:26;1.75;;;0.70;;
61104;SDS011;46987;32.638;-115.438;2023-02-28T11:39:53;1.85;;;0.60;;
61104;SDS011;46987;32.638;-115.438;2023-02-28T11:42:23;1.70;;;0.50;;
61104;SDS011;46987;32.638;-115.438;2023-02-28T11:45:02;2.55;;;0.60;;
61104;SDS011;46987;32.638;-115.438;2023-02-28T11:47:33;2.30;;;0.88;;
61104;SDS011;46987;32.638;-115.438;2023-02-28T11:52:43;2.75;;;0.60;;
61104;SDS011;46987;32.638;-115.438;2023-02-28T11:55:14;2.75;;;0.73;;
61104;SDS011;46987;32.638;-115.438;2023-02-28T11:57:52;1.77;;;0.63;;
61104;SDS011;46987;32.638;-115.438;2023-02-28T12:03:15;0.40;;;0.30;;
61104;SDS011;46987;32.638;-115.438;2023-02-28T12:05:44;0.70;;;0.30;;
61104;SDS011;46987;32.638;-115.438;2023-02-28T12:08:18;1.33;;;0.45;;
61104;SDS011;46987;32.638;-115.438;2023-02-28T12:10:51;1.25;;;0.40;;
61104;SDS011;46987;32.638;-115.438;2023-02-28T12:13:21;0.73;;;0.40;;
61104;SDS011;46987;32.638;-115.438;2023-02-28T12:15:54;1.88;;;0.43;;
61104;SDS011;46987;32.638;-115.438;2023-02-28T12:18:29;1.98;;;0.50;;
61104;SDS011;46987;32.638;-115.438;2023-02-28T12:23:28;0.52;;;0.40;;
61104;SDS011;46987;32.638;-115.438;2023-02-28T12:26:02;0.55;;;0.47;;
61104;SDS011;46987;32.638;-115.438;2023-02-28T12:28:34;0.70;;;0.30;;
61104;SDS011;46987;32.638;-115.438;2023-02-28T12:31:03;1.17;;;0.50;;
61104;SDS011;46987;32.638;-115.438;2023-02-28T12:33:34;0.75;;;0.40;;
61104;SDS011;46987;32.638;-115.438;2023-02-28T12:36:03;1.60;;;0.60;;
61104;SDS011;46987;32.638;-115.438;2023-02-28T12:38:31;2.80;;;0.50;;
61104;SDS011;46987;32.638;-115.438;2023-02-28T12:41:01;1.42;;;0.70;;
61104;SDS011;46987;32.638;-115.438;2023-02-28T12:43:30;1.15;;;0.60;;
61104;SDS011;46987;32.638;-115.438;2023-02-28T12:45:59;1.55;;;0.50;;
61104;SDS011;46987;32.638;-115.438;2023-02-28T12:48:28;2.65;;;0.60;;
61104;SDS011;46987;32.638;-115.438;2023-02-28T12:50:58;2.50;;;0.85;;
61104;SDS011;46987;32.638;-115.438;2023-02-28T12:53:26;2.97;;;0.90;;
61104;SDS011;46987;32.638;-115.438;2023-02-28T12:55:57;1.73;;;0.43;;
61104;SDS011;46987;32.638;-115.438;2023-02-28T12:58:27;0.47;;;0.40;;
61104;SDS011;46987;32.638;-115.438;2023-02-28T13:01:03;0.70;;;0.40;;
61104;SDS011;46987;32.638;-115.438;2023-02-28T13:03:44;1.13;;;0.43;;
61104;SDS011;46987;32.638;-115.438;2023-02-28T13:09:05;1.55;;;0.40;;
61104;SDS011;46987;32.638;-115.438;2023-02-28T13:11:38;1.58;;;0.50;;
61104;SDS011;46987;32.638;-115.438;2023-02-28T13:14:06;0.95;;;0.43;;
61104;SDS011;46987;32.638;-115.438;2023-02-28T13:16:51;0.95;;;0.40;;
61104;SDS011;46987;32.638;-115.438;2023-02-28T13:19:18;2.25;;;0.50;;
61104;SDS011;46987;32.638;-115.438;2023-02-28T13:21:45;0.65;;;0.47;;
61104;SDS011;46987;32.638;-115.438;2023-02-28T13:24:36;0.95;;;0.60;;
61104;SDS011;46987;32.638;-115.438;2023-02-28T13:29:53;1.42;;;0.60;;
61104;SDS011;46987;32.638;-115.438;2023-02-28T13:32:28;1.73;;;0.60;;
61104;SDS011;46987;32.638;-115.438;2023-02-28T13:37:37;3.88;;;1.48;;
61104;SDS011;46987;32.638;-115.438;2023-02-28T13:40:30;1.77;;;0.75;;
61104;SDS011;46987;32.638;-115.438;2023-02-28T13:43:04;1.80;;;0.70;;
61104;SDS011;46987;32.638;-115.438;2023-02-28T13:45:33;2.30;;;0.95;;
61104;SDS011;46987;32.638;-115.438;2023-02-28T13:48:04;2.08;;;0.80;;
61104;SDS011;46987;32.638;-115.438;2023-02-28T13:50:40;3.20;;;0.80;;
61104;SDS011;46987;32.638;-115.438;2023-02-28T13:56:05;4.22;;;0.70;;
61104;SDS011;46987;32.638;-115.438;2023-02-28T13:58:37;1.85;;;0.82;;
61104;SDS011;46987;32.638;-115.438;2023-02-28T14:01:14;2.38;;;0.70;;
61104;SDS011;46987;32.638;-115.438;2023-02-28T14:03:45;3.80;;;0.88;;
61104;SDS011;46987;32.638;-115.438;2023-02-28T14:06:25;1.08;;;0.50;;
61104;SDS011;46987;32.638;-115.438;2023-02-28T14:08:54;1.77;;;0.60;;
61104;SDS011;46987;32.638;-115.438;2023-02-28T14:11:28;3.42;;;1.00;;
61104;SDS011;46987;32.638;-115.438;2023-02-28T14:13:54;3.70;;;0.88;;
61104;SDS011;46987;32.638;-115.438;2023-02-28T14:16:22;3.25;;;0.80;;
61104;SDS011;46987;32.638;-115.438;2023-02-28T14:18:49;2.67;;;0.50;;
61104;SDS011;46987;32.638;-115.438;2023-02-28T14:21:21;1.45;;;0.70;;
61104;SDS011;46987;32.638;-115.438;2023-02-28T14:26:49;1.33;;;0.63;;
61104;SDS011;46987;32.638;-115.438;2023-02-28T14:32:10;1.13;;;0.63;;
61104;SDS011;46987;32.638;-115.438;2023-02-28T14:34:41;3.25;;;1.00;;
61104;SDS011;46987;32.638;-115.438;2023-02-28T14:37:10;3.28;;;0.93;;
61104;SDS011;46987;32.638;-115.438;2023-02-28T14:39:40;3.47;;;1.00;;
61104;SDS011;46987;32.638;-115.438;2023-02-28T14:44:55;3.70;;;0.70;;
61104;SDS011;46987;32.638;-115.438;2023-02-28T14:47:25;2.47;;;0.70;;
61104;SDS011;46987;32.638;-115.438;2023-02-28T14:49:53;2.83;;;0.90;;
61104;SDS011;46987;32.638;-115.438;2023-02-28T14:52:21;5.07;;;0.90;;
61104;SDS011;46987;32.638;-115.438;2023-02-28T14:54:51;5.15;;;0.88;;